Time;durP1;ratioP1;P1;durP2;ratioP2;P2;SDS_P1;SDS_P2;PMS_P1;PMS_P2;Temp;Humidity;BMP_temperature;BMP_pressure;BME280_temperature;BME280_humidity;BME280_pressure;Samples;Min_cycle;Max_cycle;Signal;HPM_P1;HPM_P2
2022/01/01 00:02:15;;;;;;;12.23;5.72;;;;;;;11.95;84.23;100957.22;4899962;29;20454;-79
2022/01/01 00:04:42;;;;;;;10.10;4.82;;;;;;;11.94;84.53;100954.72;4900765;29;20052;-79
2022/01/01 00:07:08;;;;;;;11.02;4.82;;;;;;;11.93;84.33;100962.00;4887654;29;20135;-79
2022/01/01 00:09:34;;;;;;;9.80;4.32;;;;;;;11.95;84.84;100967.19;4900159;29;20033;-79
2022/01/01 00:11:59;;;;;;;9.47;4.03;;;;;;;11.94;84.54;100970.94;4899870;29;20060;-80
2022/01/01 00:14:24;;;;;;;;;;;;;;;11.98;84.60;100980.31;4901137;29;20476;-81
2022/01/01 00:16:49;;;;;;;12.13;4.28;;;;;;;11.93;84.79;100986.28;4900427;29;19967;-79
2022/01/01 00:19:15;;;;;;;9.00;3.73;;;;;;;11.93;84.88;100991.69;4900561;29;20052;-79
2022/01/01 00:21:41;;;;;;;8.93;3.87;;;;;;;11.94;84.49;100987.97;4899973;29;20269;-79
2022/01/01 00:24:07;;;;;;;7.70;3.65;;;;;;;11.92;84.62;100994.59;4900235;29;20468;-78
2022/01/01 00:26:32;;;;;;;9.38;3.97;;;;;;;11.92;84.76;100998.13;4900247;29;20043;-79
2022/01/01 00:28:57;;;;;;;8.93;3.70;;;;;;;11.91;84.47;101001.03;4899977;29;20093;-83
2022/01/01 00:31:23;;;;;;;10.00;3.57;;;;;;;11.91;84.75;100996.47;4899598;29;20067;-79
2022/01/01 00:33:48;;;;;;;12.38;3.78;;;;;;;11.90;84.48;100999.34;4898886;29;20308;-79
2022/01/01 00:36:13;;;;;;;8.83;3.87;;;;;;;11.89;84.91;101001.22;4899743;29;20444;-80
2022/01/01 00:38:39;;;;;;;;;;;;;;;11.88;84.66;100990.63;4900458;29;20028;-79
2022/01/01 00:41:04;;;;;;;7.70;3.53;;;;;;;11.88;84.75;100985.22;4899374;29;19912;-83
2022/01/01 00:43:29;;;;;;;7.60;3.65;;;;;;;11.90;84.96;100985.84;4899673;29;20305;-80
2022/01/01 00:45:55;;;;;;;11.90;5.20;;;;;;;11.88;84.51;100993.31;4899488;29;20068;-79
2022/01/01 00:48:20;;;;;;;10.45;4.25;;;;;;;11.87;84.77;100995.19;4900111;29;20040;-79
2022/01/01 00:50:45;;;;;;;9.82;3.75;;;;;;;11.86;85.05;100984.56;4899368;29;20036;-79
2022/01/01 00:53:11;;;;;;;9.20;3.40;;;;;;;11.86;84.56;100993.50;4899572;29;20121;-81
2022/01/01 00:55:36;;;;;;;11.30;4.30;;;;;;;11.86;84.77;101001.63;4899289;29;20071;-79
2022/01/01 00:58:01;;;;;;;22.13;3.58;;;;;;;11.87;84.95;100997.06;4898903;29;20344;-79
2022/01/01 01:00:27;;;;;;;10.82;4.00;;;;;;;11.86;85.12;101008.88;4899140;29;20044;-79
2022/01/01 01:02:52;;;;;;;13.32;4.22;;;;;;;11.86;84.69;101009.72;4899481;29;20048;-79
2022/01/01 01:05:18;;;;;;;7.68;3.45;;;;;;;11.86;85.17;101015.13;4901789;29;20039;-79
2022/01/01 01:07:43;;;;;;;8.88;3.92;;;;;;;11.89;85.19;101011.19;4902765;29;20048;-79
2022/01/01 01:10:09;;;;;;;10.18;3.85;;;;;;;11.87;85.31;101005.97;4886007;29;20044;-80
2022/01/01 01:12:42;;;;;;;11.40;4.32;;;;;;;11.87;85.47;101008.69;4903260;29;20033;-79
2022/01/01 01:15:10;;;;;;;9.98;4.00;;;;;;;11.87;85.43;101011.38;4902883;29;20492;-81
2022/01/01 01:17:36;;;;;;;10.13;3.67;;;;;;;11.88;85.46;101013.06;4903063;29;20040;-79
2022/01/01 01:20:02;;;;;;;12.98;4.10;;;;;;;11.89;85.04;101019.28;4902794;29;20043;-80
2022/01/01 01:22:29;;;;;;;8.75;3.97;;;;;;;11.88;85.71;101013.06;4903135;29;20061;-79
2022/01/01 01:24:54;;;;;;;9.52;4.07;;;;;;;11.90;85.16;101023.66;4885987;29;20076;-79
2022/01/01 01:27:20;;;;;;;12.15;4.10;;;;;;;11.90;85.50;101016.41;4902561;29;20044;-82
2022/01/01 01:29:46;;;;;;;7.63;3.13;;;;;;;11.90;85.39;101018.25;4903956;29;20063;-80
2022/01/01 01:32:11;;;;;;;8.45;3.38;;;;;;;11.90;85.63;101012.84;4902828;29;20115;-80
2022/01/01 01:34:37;;;;;;;6.97;3.08;;;;;;;11.88;85.49;101013.06;4902852;29;20460;-80
2022/01/01 01:37:02;;;;;;;;;;;;;;;11.89;85.49;101025.53;4903618;29;20440;-81
2022/01/01 01:39:28;;;;;;;9.50;3.17;;;;;;;11.88;85.54;101017.63;4908229;29;19916;-81
2022/01/01 01:41:56;;;;;;;7.65;3.72;;;;;;;11.88;85.43;101017.63;4905713;29;20308;-80
2022/01/01 01:44:32;;;;;;;14.93;4.72;;;;;;;11.88;85.59;101012.22;4902280;29;20535;-80
2022/01/01 01:47:00;;;;;;;11.70;3.75;;;;;;;11.86;85.67;101003.47;4885543;29;20033;-82
2022/01/01 01:49:25;;;;;;;10.68;4.63;;;;;;;11.86;85.72;101014.28;4902891;29;20029;-80
2022/01/01 01:51:51;;;;;;;11.52;3.72;;;;;;;11.87;85.89;101003.28;4902440;29;20397;-80
2022/01/01 01:54:17;;;;;;;7.38;3.63;;;;;;;11.88;86.12;101007.66;4902244;29;20033;-79
2022/01/01 01:56:45;;;;;;;11.88;4.95;;;;;;;11.86;85.63;101015.13;4885281;29;20200;-80
2022/01/01 01:59:10;;;;;;;8.50;3.50;;;;;;;11.86;85.98;101011.59;4902391;29;20124;-80
2022/01/01 02:01:36;;;;;;;12.90;4.57;;;;;;;11.86;85.97;101011.59;4885765;29;20064;-80
2022/01/01 02:04:02;;;;;;;8.82;3.83;;;;;;;11.84;85.68;101014.47;4901988;29;20041;-79
2022/01/01 02:06:27;;;;;;;9.45;4.25;;;;;;;11.85;86.15;101024.25;4901695;29;20056;-83
2022/01/01 02:08:53;;;;;;;11.52;4.93;;;;;;;11.87;85.83;101021.34;4885343;29;20449;-81
2022/01/01 02:11:23;;;;;;;8.63;3.88;;;;;;;11.87;85.63;101030.28;4901960;29;20430;-80
2022/01/01 02:18:44;;;;;;;10.40;4.20;;;;;;;11.88;85.57;101033.81;4901597;29;20063;-79
2022/01/01 02:21:11;;;;;;;9.60;4.43;;;;;;;11.88;85.71;101031.13;4901224;29;20472;-79
2022/01/01 02:23:41;;;;;;;10.82;4.65;;;;;;;11.89;85.69;101035.50;4901588;29;20041;-79
2022/01/01 02:26:11;;;;;;;13.60;4.93;;;;;;;11.89;85.56;101039.03;4901358;29;20033;-79
2022/01/01 02:28:37;;;;;;;15.60;6.00;;;;;;;11.91;85.28;101034.25;4901785;29;20028;-82
2022/01/01 02:31:03;;;;;;;10.02;4.57;;;;;;;11.91;85.45;101034.25;4885197;29;20028;-79
2022/01/01 02:33:28;;;;;;;10.23;4.85;;;;;;;11.91;84.98;101033.44;4884964;29;20127;-81
2022/01/01 02:35:54;;;;;;;12.38;4.80;;;;;;;11.90;84.86;101032.59;4884717;29;20333;-80
2022/01/01 02:38:19;;;;;;;14.70;4.80;;;;;;;11.90;85.15;101021.78;4901711;29;20080;-81
2022/01/01 02:40:44;;;;;;;12.00;5.27;;;;;;;11.91;85.00;101028.03;4902122;29;20035;-80
2022/01/01 02:43:11;;;;;;;12.73;5.30;;;;;;;11.89;84.55;101022.81;4901963;29;20271;-80
2022/01/01 02:45:36;;;;;;;11.65;4.55;;;;;;;11.87;84.63;101022.19;4902278;29;20123;-79
2022/01/01 02:48:02;;;;;;;13.77;5.05;;;;;;;11.88;84.60;101023.84;4902128;29;20052;-82
2022/01/01 02:50:27;;;;;;;11.75;5.00;;;;;;;11.90;84.66;101031.75;4901972;29;20045;-80
2022/01/01 02:52:52;;;;;;;11.93;4.85;;;;;;;11.88;84.89;101029.25;4901683;29;20108;-82
2022/01/01 02:55:18;;;;;;;16.13;5.97;;;;;;;11.88;84.75;101033.81;4901810;29;20047;-80
2022/01/01 02:57:43;;;;;;;11.90;5.63;;;;;;;11.88;84.75;101036.53;4901133;29;20344;-85
2022/01/01 03:00:09;;;;;;;16.67;6.57;;;;;;;11.88;84.73;101039.22;4901695;29;20315;-81
2022/01/01 03:02:34;;;;;;;13.63;5.28;;;;;;;11.88;84.56;101044.63;4902114;29;20380;-80
2022/01/01 03:04:59;;;;;;;12.40;5.40;;;;;;;11.89;84.43;101052.53;4902038;29;20052;-80
2022/01/01 03:07:25;;;;;;;13.88;6.50;;;;;;;11.89;84.76;101057.94;4901486;29;20104;-82
2022/01/01 03:09:50;;;;;;;11.50;5.85;;;;;;;11.88;84.70;101050.03;4901434;29;20084;-81
2022/01/01 03:12:16;;;;;;;14.87;6.27;;;;;;;11.88;84.87;101050.84;4901820;29;20028;-83
2022/01/01 03:14:42;;;;;;;15.57;6.57;;;;;;;11.89;84.76;101059.78;4903764;29;20316;-80
2022/01/01 03:17:08;;;;;;;14.45;5.75;;;;;;;11.88;84.76;101058.97;4903912;29;20033;-80
2022/01/01 03:19:34;;;;;;;12.48;6.00;;;;;;;11.88;84.12;101055.44;4887080;29;20033;-80
2022/01/01 03:22:01;;;;;;;15.63;5.72;;;;;;;11.86;84.56;101052.09;4903850;29;20046;-80
2022/01/01 03:24:27;;;;;;;15.07;5.72;;;;;;;11.86;84.60;101049.38;4905145;29;20088;-80
2022/01/01 03:26:52;;;;;;;15.40;5.40;;;;;;;11.85;84.54;101051.25;4901004;29;20436;-80
2022/01/01 03:29:18;;;;;;;15.93;5.70;;;;;;;11.87;84.49;101049.19;4900058;29;20037;-80
2022/01/01 03:31:43;;;;;;;9.68;4.80;;;;;;;11.87;84.04;101043.78;4900903;29;20044;-80
2022/01/01 03:34:09;;;;;;;15.60;6.40;;;;;;;11.88;84.13;101041.91;4900582;29;20035;-80
2022/01/01 03:36:34;;;;;;;12.50;5.60;;;;;;;11.87;83.81;101046.50;4884016;29;20483;-80
2022/01/01 03:39:00;;;;;;;11.38;5.15;;;;;;;11.86;83.98;101047.53;4900617;29;20399;-80
2022/01/01 03:41:26;;;;;;;14.27;5.10;;;;;;;11.87;83.88;101051.88;4900364;29;20039;-80
2022/01/01 03:43:52;;;;;;;12.05;5.35;;;;;;;11.87;84.14;101049.19;4901018;29;20392;-80
2022/01/01 03:46:17;;;;;;;10.52;5.15;;;;;;;11.87;83.95;101049.19;4883660;29;20052;-79
2022/01/01 03:48:42;;;;;;;10.10;4.63;;;;;;;11.86;83.41;101042.13;4900343;29;20044;-81
2022/01/01 03:51:08;;;;;;;10.90;4.55;;;;;;;11.87;83.46;101038.38;4900301;29;20268;-81
2022/01/01 03:53:33;;;;;;;11.73;4.60;;;;;;;11.87;83.38;101037.56;4900091;29;20033;-81
2022/01/01 03:55:59;;;;;;;10.73;4.47;;;;;;;11.87;83.70;101034.84;4900209;29;20392;-79
2022/01/01 03:58:25;;;;;;;12.23;5.53;;;;;;;11.87;83.45;101018.66;4884027;29;20123;-80
2022/01/01 04:00:50;;;;;;;10.20;5.07;;;;;;;11.86;83.39;101020.53;4900712;29;20033;-81
2022/01/01 04:03:17;;;;;;;11.48;5.20;;;;;;;11.87;83.28;101014.09;4900303;29;20540;-80
2022/01/01 04:05:42;;;;;;;;;;;;;;;11.87;83.22;101013.25;4900372;29;20516;-80
2022/01/01 04:08:09;;;;;;;9.82;4.18;;;;;;;11.86;83.20;100998.06;4899843;29;19923;-80
2022/01/01 04:10:35;;;;;;;11.48;4.72;;;;;;;11.90;82.85;101002.06;4900284;29;20116;-80
2022/01/01 04:13:03;;;;;;;14.70;4.70;;;;;;;11.88;82.71;101002.25;4883030;29;20040;-77
2022/01/01 04:15:29;;;;;;;13.70;4.95;;;;;;;11.90;82.41;101010.16;4899065;29;20039;-77
2022/01/01 04:17:58;;;;;;;9.07;3.53;;;;;;;11.90;82.47;101010.16;4899163;29;20033;-76
2022/01/01 04:20:25;;;;;;;12.50;3.67;;;;;;;11.91;82.13;101009.13;4882080;29;20107;-77
2022/01/01 04:22:52;;;;;;;10.90;4.15;;;;;;;11.91;82.20;101012.66;4899066;29;20044;-80
2022/01/01 04:25:18;;;;;;;10.30;4.40;;;;;;;11.92;81.87;101011.63;4900181;29;20056;-79
2022/01/01 04:27:43;;;;;;;12.95;4.28;;;;;;;11.92;81.91;101011.63;4899961;29;20120;-80
2022/01/01 04:30:09;;;;;;;9.80;4.00;;;;;;;11.93;81.70;101012.47;4899587;29;20040;-78
2022/01/01 04:32:34;;;;;;;9.07;3.88;;;;;;;11.92;81.33;101014.34;4898576;29;20273;-77
2022/01/01 04:34:59;;;;;;;13.13;4.03;;;;;;;11.94;81.48;101017.66;4899058;29;20044;-80
2022/01/01 04:37:25;;;;;;;10.73;3.72;;;;;;;11.94;81.19;101011.44;4899621;29;20476;-80
2022/01/01 04:39:58;;;;;;;;;;;;;;;11.97;81.25;101013.75;4901686;29;20119;-80
2022/01/01 04:42:24;;;;;;;11.05;3.22;;;;;;;11.97;80.61;101006.47;4903935;29;20279;-79
2022/01/01 04:44:49;;;;;;;11.95;4.15;;;;;;;11.98;80.41;101013.53;4903756;29;20040;-84
2022/01/01 04:47:15;;;;;;;7.27;3.10;;;;;;;11.98;80.83;101010.00;4903693;29;20048;-80
2022/01/01 04:49:40;;;;;;;8.02;3.35;;;;;;;11.98;80.66;101010.84;4903625;29;20036;-80
2022/01/01 04:52:06;;;;;;;8.07;3.25;;;;;;;11.98;80.79;101001.91;4904134;29;20055;-80
2022/01/01 04:54:31;;;;;;;9.48;3.35;;;;;;;11.97;80.50;101003.78;4903809;29;20068;-80
2022/01/01 04:56:56;;;;;;;10.25;3.60;;;;;;;11.98;80.54;101010.84;4904022;29;20043;-79
2022/01/01 04:59:22;;;;;;;7.63;3.33;;;;;;;11.97;80.60;101019.97;4903004;29;20043;-82
2022/01/01 05:01:47;;;;;;;9.40;3.00;;;;;;;11.97;80.90;101011.03;4887148;29;20276;-79
2022/01/01 05:04:12;;;;;;;10.15;3.20;;;;;;;11.97;80.59;101014.56;4903195;29;20412;-81
2022/01/01 05:06:41;;;;;;;8.13;3.60;;;;;;;11.95;80.92;101016.63;4902819;29;20157;-80
2022/01/01 05:09:06;;;;;;;9.40;3.30;;;;;;;11.95;80.40;101016.63;4903881;29;20276;-81
2022/01/01 05:11:32;;;;;;;5.93;2.80;;;;;;;11.98;80.96;101034.31;4903051;29;20025;-80
2022/01/01 05:13:58;;;;;;;6.82;2.70;;;;;;;11.98;81.18;101020.81;4902054;29;20150;-80
2022/01/01 05:16:23;;;;;;;8.45;2.88;;;;;;;11.98;81.10;101021.66;4902232;29;20464;-77
2022/01/01 05:18:49;;;;;;;6.40;2.13;;;;;;;11.98;80.65;101037.00;4901155;29;20041;-80
2022/01/01 05:21:14;;;;;;;6.45;2.53;;;;;;;11.98;81.25;101034.31;4901583;29;20047;-79
2022/01/01 05:23:40;;;;;;;6.15;2.00;;;;;;;12.02;81.06;101041.78;4901648;29;20396;-76
2022/01/01 05:26:05;;;;;;;9.25;2.80;;;;;;;12.00;80.95;101046.56;4901494;29;20119;-77
2022/01/01 05:28:30;;;;;;;6.78;2.30;;;;;;;11.99;80.93;101044.94;4901685;29;20064;-77
2022/01/01 05:30:57;;;;;;;7.75;2.67;;;;;;;12.00;81.16;101053.84;4901573;29;20098;-76
2022/01/01 05:33:22;;;;;;;6.80;2.58;;;;;;;11.99;81.14;101053.03;4884805;29;20040;-78
2022/01/01 05:35:48;;;;;;;6.13;2.28;;;;;;;12.00;81.00;101059.25;4901729;29;20032;-82
2022/01/01 05:38:13;;;;;;;8.67;2.67;;;;;;;11.99;80.85;101066.53;4902345;29;20033;-80
2022/01/01 05:40:38;;;;;;;8.93;3.35;;;;;;;11.99;81.03;101063.00;4902539;29;20273;-81
2022/01/01 05:43:04;;;;;;;9.32;2.30;;;;;;;11.98;80.66;101059.47;4902233;29;20373;-79
2022/01/01 05:45:29;;;;;;;5.95;2.78;;;;;;;11.98;80.78;101058.63;4902600;29;20029;-80
2022/01/01 05:47:54;;;;;;;;;;;;;;;11.97;80.72;101063.19;4902700;29;20069;-79
2022/01/01 05:50:20;;;;;;;6.30;2.10;;;;;;;11.97;80.91;101056.94;4902221;29;19922;-81
2022/01/01 05:52:46;;;;;;;9.48;3.70;;;;;;;11.97;81.10;101049.69;4901684;29;20264;-80
2022/01/01 05:55:11;;;;;;;5.68;2.58;;;;;;;11.99;80.83;101054.88;4902401;29;20052;-81
2022/01/01 05:57:37;;;;;;;8.57;2.92;;;;;;;11.96;80.83;101042.63;4901979;29;20391;-79
2022/01/01 06:00:06;;;;;;;5.60;2.83;;;;;;;11.96;80.74;101045.31;4901398;29;20041;-77
2022/01/01 06:02:38;;;;;;;12.85;3.38;;;;;;;11.97;80.86;101041.59;4900987;29;20031;-83
2022/01/01 06:05:03;;;;;;;8.82;2.72;;;;;;;11.97;80.73;101051.56;4900964;29;20032;-77
2022/01/01 06:07:29;;;;;;;7.72;3.50;;;;;;;11.99;80.60;101057.59;4900906;29;20050;-77
2022/01/01 06:09:54;;;;;;;6.13;2.60;;;;;;;12.00;80.57;101056.56;4901356;29;20037;-80
2022/01/01 06:12:19;;;;;;;9.23;2.90;;;;;;;12.01;80.26;101050.09;4902043;29;20449;-81
2022/01/01 06:14:45;;;;;;;5.97;2.80;;;;;;;12.03;80.02;101050.72;4903710;29;20378;-79
2022/01/01 06:17:10;;;;;;;5.57;2.70;;;;;;;12.03;80.07;101051.56;4901675;29;20272;-77
2022/01/01 06:19:35;;;;;;;9.85;3.10;;;;;;;12.05;79.73;101051.38;4901981;29;20036;-77
2022/01/01 06:22:00;;;;;;;6.00;2.47;;;;;;;12.05;79.57;101056.78;4902812;29;20029;-77
2022/01/01 06:24:26;;;;;;;8.20;2.67;;;;;;;12.05;80.03;101051.38;4901148;29;20280;-79
2022/01/01 06:26:51;;;;;;;6.97;2.20;;;;;;;12.02;79.44;101051.75;4901562;29;20773;-79
2022/01/01 06:29:16;;;;;;;;;;;;;;;12.03;79.83;101053.44;4885321;29;20480;-79
2022/01/01 06:31:42;;;;;;;9.85;3.13;;;;;;;12.06;79.48;101055.75;4901296;29;19911;-78
2022/01/01 06:34:08;;;;;;;6.00;2.23;;;;;;;12.04;79.65;101061.34;4901588;29;20076;-78
2022/01/01 06:36:33;;;;;;;;;;;;;;;12.04;79.85;101065.91;4902543;29;20068;-80
2022/01/01 06:38:58;;;;;;;8.07;2.00;;;;;;;12.03;79.81;101061.53;4902529;29;19912;-80
2022/01/01 06:41:25;;;;;;;9.07;2.83;;;;;;;12.02;79.53;101058.00;4902138;29;20288;-79
2022/01/01 06:43:50;;;;;;;7.90;2.33;;;;;;;12.00;79.86;101060.06;4901320;29;20291;-78
2022/01/01 06:46:15;;;;;;;6.90;2.33;;;;;;;12.00;79.45;101065.47;4901097;29;20472;-75
2022/01/01 06:48:41;;;;;;;8.10;3.00;;;;;;;12.00;79.57;101068.16;4899636;29;20365;-76
2022/01/01 06:51:06;;;;;;;7.55;2.08;;;;;;;11.99;79.23;101066.53;4899484;29;20120;-76
2022/01/01 06:53:31;;;;;;;8.00;2.33;;;;;;;11.99;79.80;101069.22;4899828;29;20039;-76
2022/01/01 06:55:59;;;;;;;7.43;2.20;;;;;;;11.99;79.65;101074.63;4882961;29;20616;-77
2022/01/01 06:58:24;;;;;;;6.70;2.13;;;;;;;11.98;79.24;101075.66;4899749;29;20039;-75
2022/01/01 07:00:50;;;;;;;6.47;2.75;;;;;;;11.98;79.17;101078.38;4900097;29;20048;-79
2022/01/01 07:03:22;;;;;;;6.22;1.80;;;;;;;11.99;79.32;101074.63;4901459;29;20051;-79
2022/01/01 07:05:47;;;;;;;7.70;1.95;;;;;;;11.99;79.50;101063.81;4900932;29;20064;-78
2022/01/01 07:08:12;;;;;;;4.47;1.70;;;;;;;11.99;79.15;101063.81;4900615;29;20079;-79
2022/01/01 07:10:38;;;;;;;;;;;;;;;11.99;79.25;101063.81;4901345;29;20028;-79
2022/01/01 07:13:05;;;;;;;9.27;1.80;;;;;;;11.99;79.20;101054.88;4901001;29;19955;-77
2022/01/01 07:15:30;;;;;;;;;;;;;;;11.99;78.98;101063.81;4900399;29;20056;-79
2022/01/01 07:17:55;;;;;;;4.85;1.90;;;;;;;11.98;78.90;101066.72;4901007;29;20278;-78
2022/01/01 07:20:21;;;;;;;4.73;1.73;;;;;;;11.98;78.97;101066.72;4900865;29;20028;-77
2022/01/01 07:22:46;;;;;;;6.10;1.63;;;;;;;11.97;79.11;101065.06;4899882;29;20617;-80
2022/01/01 07:25:13;;;;;;;12.95;2.20;;;;;;;11.96;79.04;101069.63;4900826;29;20025;-78
2022/01/01 07:27:39;;;;;;;4.55;1.98;;;;;;;11.99;79.02;101079.19;4900767;29;20043;-77
2022/01/01 07:30:06;;;;;;;7.82;2.50;;;;;;;12.01;78.43;101074.41;4900676;29;20112;-78
2022/01/01 07:32:31;;;;;;;8.15;3.00;;;;;;;12.03;78.47;101083.16;4900594;29;20036;-78
2022/01/01 07:34:57;;;;;;;6.00;1.50;;;;;;;12.00;78.46;101084.38;4900496;29;20040;-79
2022/01/01 07:37:22;;;;;;;4.70;1.93;;;;;;;12.00;78.37;101084.38;4900670;29;20036;-81
2022/01/01 07:39:47;;;;;;;4.68;1.65;;;;;;;12.00;78.72;101087.06;4883716;29;20277;-79
2022/01/01 07:42:13;;;;;;;7.33;2.00;;;;;;;12.05;78.10;101092.72;4900232;29;20120;-78
2022/01/01 07:44:42;;;;;;;4.03;2.00;;;;;;;12.03;78.11;101093.94;4900343;29;20269;-80
2022/01/01 07:47:07;;;;;;;4.50;1.75;;;;;;;12.00;78.44;101091.69;4900385;29;20076;-78
2022/01/01 07:49:32;;;;;;;5.72;1.48;;;;;;;12.00;78.43;101092.47;4883803;29;20055;-78
2022/01/01 07:51:58;;;;;;;14.33;1.90;;;;;;;12.01;78.41;101090.59;4899942;29;20040;-80
2022/01/01 07:54:23;;;;;;;4.55;1.77;;;;;;;12.00;78.56;101105.97;4883460;29;20048;-78
2022/01/01 07:56:48;;;;;;;;;;;;;;;12.01;78.19;101120.31;4900661;29;20061;-78
2022/01/01 07:59:14;;;;;;;6.17;1.67;;;;;;;12.00;78.18;101116.78;4900472;29;20259;-79
2022/01/01 08:01:43;;;;;;;5.30;1.60;;;;;;;11.99;77.93;101112.44;4900464;29;20720;-80
2022/01/01 08:04:10;;;;;;;7.03;1.42;;;;;;;11.98;77.88;101113.47;4883393;29;20375;-81
2022/01/01 08:06:35;;;;;;;3.55;1.35;;;;;;;11.98;78.13;101099.97;4899402;29;20067;-78
2022/01/01 08:09:01;;;;;;;3.90;1.65;;;;;;;11.98;78.07;101110.78;4900056;29;20395;-80
2022/01/01 08:11:27;;;;;;;3.47;1.42;;;;;;;11.99;78.17;101112.44;4899948;29;20041;-78
2022/01/01 08:13:53;;;;;;;5.27;1.90;;;;;;;11.99;78.08;101114.31;4899086;29;20047;-80
2022/01/01 08:16:18;;;;;;;8.43;1.80;;;;;;;11.97;77.68;101113.66;4900026;29;20272;-80
2022/01/01 08:18:44;;;;;;;3.90;1.63;;;;;;;12.02;77.92;101105.78;4900025;29;20036;-82
2022/01/01 08:21:12;;;;;;;5.43;1.77;;;;;;;12.01;77.83;101104.13;4900309;29;20040;-82
2022/01/01 08:23:38;;;;;;;4.40;1.48;;;;;;;12.01;77.84;101114.91;4899595;29;20037;-79
2022/01/01 08:26:03;;;;;;;4.88;1.65;;;;;;;12.01;77.72;101114.91;4899909;29;20040;-78
2022/01/01 08:28:28;;;;;;;4.25;1.50;;;;;;;12.02;77.41;101106.63;4900711;29;20047;-83
2022/01/01 08:30:54;;;;;;;6.00;1.35;;;;;;;12.06;77.35;101112.47;4884217;29;20032;-78
2022/01/01 08:33:23;;;;;;;3.97;1.30;;;;;;;12.06;77.42;101124.09;4883937;29;20124;-78
2022/01/01 08:35:48;;;;;;;4.47;1.63;;;;;;;12.07;77.44;101127.66;4900623;29;20059;-77
2022/01/01 08:38:14;;;;;;;6.97;1.80;;;;;;;12.07;77.21;101125.78;4902111;29;20032;-78
2022/01/01 08:40:40;;;;;;;4.50;1.40;;;;;;;12.07;77.11;101117.69;4899649;29;20087;-79
2022/01/01 08:43:05;;;;;;;5.82;1.60;;;;;;;12.07;76.79;101125.78;4898496;29;20056;-78
2022/01/01 08:45:31;;;;;;;3.42;1.27;;;;;;;12.06;77.07;101126.81;4900687;29;20040;-78
2022/01/01 08:47:56;;;;;;;4.00;1.27;;;;;;;12.03;76.53;101121.78;4884695;29;20028;-82
2022/01/01 08:50:22;;;;;;;4.80;1.30;;;;;;;12.06;76.79;101120.56;4899984;29;20472;-78
2022/01/01 08:52:48;;;;;;;6.43;1.17;;;;;;;12.07;76.65;101125.78;4900797;29;20037;-79
2022/01/01 08:55:14;;;;;;;2.58;1.08;;;;;;;12.13;76.67;101124.16;4899014;29;20111;-76
2022/01/01 08:57:39;;;;;;;6.40;1.63;;;;;;;12.11;76.34;101120.81;4898039;29;20428;-76
2022/01/01 09:00:08;;;;;;;3.90;1.33;;;;;;;12.12;75.88;101117.09;4899465;29;20097;-78
2022/01/01 09:02:34;;;;;;;5.72;1.27;;;;;;;12.14;76.31;101117.72;4882265;29;20051;-78
2022/01/01 09:05:00;;;;;;;5.45;1.73;;;;;;;12.12;76.14;101117.94;4905492;29;20056;-79
2022/01/01 09:07:28;;;;;;;6.60;1.27;;;;;;;12.17;75.95;101122.75;4905915;29;20423;-79
2022/01/01 09:10:04;;;;;;;3.03;1.20;;;;;;;12.16;76.02;101123.78;4891244;29;20395;-79
2022/01/01 09:12:30;;;;;;;9.45;1.67;;;;;;;12.20;76.36;101118.78;4900606;29;20065;-78
2022/01/01 09:14:56;;;;;;;2.22;1.00;;;;;;;12.20;75.66;101116.09;4884025;29;20037;-80
2022/01/01 09:17:24;;;;;;;4.93;1.60;;;;;;;12.18;75.96;101112.78;4900200;29;20037;-80
2022/01/01 09:19:50;;;;;;;3.47;1.30;;;;;;;12.20;76.00;101116.91;4899858;29;20055;-78
2022/01/01 09:22:16;;;;;;;3.17;1.30;;;;;;;12.22;76.14;101124.81;4899039;29;20468;-78
2022/01/01 09:24:41;;;;;;;;;;;;;;;12.25;75.86;101124.44;4900423;29;20040;-78
2022/01/01 09:27:07;;;;;;;8.98;1.73;;;;;;;12.33;75.09;101118.88;4903641;29;19919;-79
2022/01/01 09:29:32;;;;;;;2.75;1.00;;;;;;;12.28;75.77;101118.63;4903769;29;20119;-78
2022/01/01 09:31:58;;;;;;;6.05;1.73;;;;;;;12.30;75.21;101116.56;4910479;29;20365;-77
2022/01/01 09:34:23;;;;;;;5.78;1.10;;;;;;;12.26;75.42;101129.66;4910017;29;20088;-78
2022/01/01 09:36:50;;;;;;;3.45;1.00;;;;;;;12.26;75.49;101123.41;4895779;29;20056;-78
2022/01/01 09:39:16;;;;;;;5.88;1.08;;;;;;;12.30;75.25;101130.09;4908751;29;20029;-78
2022/01/01 09:41:43;;;;;;;4.32;1.33;;;;;;;12.34;74.91;101128.66;4909430;29;20456;-78
2022/01/01 09:44:16;;;;;;;4.30;1.55;;;;;;;12.41;74.87;101129.50;4909789;29;20092;-77
2022/01/01 09:46:44;;;;;;;5.88;1.65;;;;;;;12.41;74.83;101134.91;4905290;29;20033;-80
2022/01/01 09:49:12;;;;;;;4.22;1.00;;;;;;;12.42;74.88;101136.59;4902519;29;20372;-84
2022/01/01 09:51:40;;;;;;;4.95;1.20;;;;;;;12.43;74.39;101124.75;4903144;29;20110;-78
2022/01/01 09:54:05;;;;;;;6.10;1.63;;;;;;;12.47;74.46;101129.56;4903294;29;20485;-79
2022/01/01 09:56:31;;;;;;;2.63;1.00;;;;;;;12.46;74.40;101133.28;4902462;29;20115;-82
2022/01/01 09:58:56;;;;;;;4.72;1.38;;;;;;;12.47;74.27;101134.97;4902875;29;20743;-78
2022/01/01 10:01:21;;;;;;;5.28;1.38;;;;;;;12.49;74.01;101127.50;4902609;29;20392;-78
2022/01/01 10:03:50;;;;;;;3.50;1.48;;;;;;;12.55;73.97;101144.75;4902261;29;20387;-78
2022/01/01 10:06:18;;;;;;;4.95;1.52;;;;;;;12.57;73.56;101131.88;4902094;29;20084;-78
2022/01/01 10:08:49;;;;;;;3.72;1.15;;;;;;;12.58;73.81;101133.56;4903127;29;20043;-78
2022/01/01 10:11:18;;;;;;;2.15;0.80;;;;;;;12.62;74.12;101129.41;4902560;29;20060;-78
2022/01/01 10:13:45;;;;;;;10.88;1.48;;;;;;;12.63;73.30;101131.09;4902248;29;20029;-78
2022/01/01 10:16:11;;;;;;;5.80;2.08;;;;;;;12.64;73.29;101115.69;4885079;29;20480;-77
2022/01/01 10:18:39;;;;;;;2.17;0.80;;;;;;;12.64;73.50;101116.53;4900516;29;20032;-76
2022/01/01 10:21:13;;;;;;;2.92;0.95;;;;;;;12.69;73.27;101111.38;4900946;29;20491;-79
2022/01/01 10:23:43;;;;;;;2.75;0.88;;;;;;;12.74;72.99;101106.16;4901162;29;20044;-78
2022/01/01 10:28:54;;;;;;;5.00;1.30;;;;;;;12.82;72.66;101111.41;4900047;29;20395;-77
2022/01/01 10:31:20;;;;;;;3.20;0.93;;;;;;;12.88;72.39;101112.47;4900508;29;20036;-78
2022/01/01 10:33:46;;;;;;;2.20;0.90;;;;;;;12.88;72.31;101098.97;4883454;29;20037;-76
2022/01/01 10:36:13;;;;;;;4.70;1.13;;;;;;;12.92;72.53;101099.34;4900106;29;20093;-79
2022/01/01 10:38:38;;;;;;;3.15;1.13;;;;;;;12.95;72.05;101105.19;4900950;29;20032;-80
2022/01/01 10:41:09;;;;;;;2.42;0.95;;;;;;;13.02;72.33;101100.66;4900822;29;20448;-77
2022/01/01 10:43:39;;;;;;;3.92;0.90;;;;;;;13.07;71.97;101097.34;4899661;29;20404;-77
2022/01/01 10:46:06;;;;;;;4.32;1.17;;;;;;;13.09;71.54;101095.25;4900185;29;20028;-77
2022/01/01 10:51:04;;;;;;;3.72;0.98;;;;;;;13.14;71.76;101087.34;4901062;29;20040;-77
2022/01/01 10:53:29;;;;;;;4.72;1.40;;;;;;;13.14;71.34;101092.75;4901645;29;20102;-77
2022/01/01 10:56:00;;;;;;;4.15;1.02;;;;;;;13.16;71.75;101088.00;4900019;29;20071;-77
2022/01/01 10:58:28;;;;;;;3.45;1.08;;;;;;;13.19;71.10;101065.97;4901984;29;20032;-78
2022/01/01 11:01:05;;;;;;;5.00;1.50;;;;;;;13.20;71.51;101070.34;4900477;29;20078;-79
2022/01/01 11:03:36;;;;;;;2.13;0.80;;;;;;;13.18;71.13;101064.28;4885456;29;20036;-80
2022/01/01 11:06:08;;;;;;;4.75;1.20;;;;;;;13.14;71.31;101058.41;4902234;29;20116;-78
2022/01/01 11:08:35;;;;;;;4.22;1.42;;;;;;;13.21;71.22;101061.19;4903816;29;20041;-79
2022/01/01 11:11:02;;;;;;;3.70;1.27;;;;;;;13.18;71.61;101054.28;4902150;29;20043;-79
2022/01/01 11:13:28;;;;;;;4.80;1.27;;;;;;;13.14;71.45;101052.19;4901521;29;20029;-79
2022/01/01 11:15:54;;;;;;;3.20;1.20;;;;;;;13.16;71.46;101047.44;4884792;29;20116;-78
2022/01/01 11:18:21;;;;;;;2.47;0.88;;;;;;;13.17;71.38;101052.63;4901140;29;20075;-79
2022/01/01 11:20:46;;;;;;;4.00;1.02;;;;;;;13.27;71.04;101052.22;4901082;29;20033;-78
2022/01/01 11:23:12;;;;;;;4.13;1.08;;;;;;;13.23;71.24;101034.75;4900541;29;20057;-78
2022/01/01 11:25:40;;;;;;;3.20;1.40;;;;;;;13.28;70.85;101025.97;4899948;29;20437;-79
2022/01/01 11:28:10;;;;;;;4.75;1.00;;;;;;;13.20;70.93;101033.28;4899096;29;20471;-77
2022/01/01 11:30:41;;;;;;;4.07;1.05;;;;;;;13.30;70.81;101027.44;4899521;29;20384;-82
2022/01/01 11:33:10;;;;;;;2.40;0.98;;;;;;;13.36;70.95;101021.22;4900670;29;20039;-80